sensor_id;sensor_type;location;lat;lon;timestamp;P1;durP1;ratioP1;P2;durP2;ratioP2
29954;SDS011;68448;51.188;6.868;2024-01-15T00:00:29;40.00;;;19.47;;
29954;SDS011;68448;51.188;6.868;2024-01-15T00:02:57;41.50;;;21.10;;
29954;SDS011;68448;51.188;6.868;2024-01-15T00:05:24;47.80;;;19.03;;
29954;SDS011;68448;51.188;6.868;2024-01-15T00:07:51;55.77;;;20.00;;
29954;SDS011;68448;51.188;6.868;2024-01-15T00:10:18;43.50;;;19.03;;
29954;SDS011;68448;51.188;6.868;2024-01-15T00:12:45;46.30;;;22.07;;
29954;SDS011;68448;51.188;6.868;2024-01-15T00:15:14;52.57;;;19.90;;
29954;SDS011;68448;51.188;6.868;2024-01-15T00:17:42;50.40;;;21.03;;
29954;SDS011;68448;51.188;6.868;2024-01-15T00:20:09;64.03;;;25.07;;
29954;SDS011;68448;51.188;6.868;2024-01-15T00:22:37;27.30;;;11.47;;
29954;SDS011;68448;51.188;6.868;2024-01-15T00:25:04;48.57;;;20.57;;
29954;SDS011;68448;51.188;6.868;2024-01-15T00:27:32;52.13;;;22.03;;
29954;SDS011;68448;51.188;6.868;2024-01-15T00:29:59;46.87;;;17.33;;
29954;SDS011;68448;51.188;6.868;2024-01-15T00:32:28;46.80;;;20.20;;
29954;SDS011;68448;51.188;6.868;2024-01-15T00:34:55;45.20;;;20.27;;
29954;SDS011;68448;51.188;6.868;2024-01-15T00:37:22;50.63;;;22.43;;
29954;SDS011;68448;51.188;6.868;2024-01-15T00:39:49;52.53;;;20.20;;
29954;SDS011;68448;51.188;6.868;2024-01-15T00:42:16;61.47;;;20.37;;
29954;SDS011;68448;51.188;6.868;2024-01-15T00:44:43;54.37;;;20.67;;
29954;SDS011;68448;51.188;6.868;2024-01-15T00:47:11;44.87;;;17.40;;
29954;SDS011;68448;51.188;6.868;2024-01-15T00:49:39;61.20;;;20.70;;
29954;SDS011;68448;51.188;6.868;2024-01-15T00:52:06;60.43;;;21.37;;
29954;SDS011;68448;51.188;6.868;2024-01-15T00:54:33;47.00;;;18.33;;
29954;SDS011;68448;51.188;6.868;2024-01-15T00:57:01;48.97;;;21.17;;
29954;SDS011;68448;51.188;6.868;2024-01-15T00:59:28;50.60;;;21.40;;
29954;SDS011;68448;51.188;6.868;2024-01-15T01:01:55;50.23;;;19.77;;
29954;SDS011;68448;51.188;6.868;2024-01-15T01:04:22;45.63;;;19.90;;
29954;SDS011;68448;51.188;6.868;2024-01-15T01:06:51;60.23;;;23.43;;
29954;SDS011;68448;51.188;6.868;2024-01-15T01:09:18;46.30;;;20.00;;
29954;SDS011;68448;51.188;6.868;2024-01-15T01:11:45;61.13;;;25.47;;
29954;SDS011;68448;51.188;6.868;2024-01-15T01:14:13;58.13;;;22.30;;
29954;SDS011;68448;51.188;6.868;2024-01-15T01:16:40;59.10;;;22.00;;
29954;SDS011;68448;51.188;6.868;2024-01-15T01:19:07;50.60;;;19.17;;
29954;SDS011;68448;51.188;6.868;2024-01-15T01:21:35;46.60;;;19.37;;
29954;SDS011;68448;51.188;6.868;2024-01-15T01:24:04;53.10;;;23.23;;
29954;SDS011;68448;51.188;6.868;2024-01-15T01:26:31;52.93;;;23.17;;
29954;SDS011;68448;51.188;6.868;2024-01-15T01:28:58;48.73;;;22.80;;
29954;SDS011;68448;51.188;6.868;2024-01-15T01:31:25;43.07;;;18.80;;
29954;SDS011;68448;51.188;6.868;2024-01-15T01:33:52;50.90;;;21.90;;
29954;SDS011;68448;51.188;6.868;2024-01-15T01:36:20;56.30;;;22.60;;
29954;SDS011;68448;51.188;6.868;2024-01-15T01:38:47;41.97;;;19.13;;
29954;SDS011;68448;51.188;6.868;2024-01-15T01:41:16;36.67;;;15.87;;
29954;SDS011;68448;51.188;6.868;2024-01-15T01:43:43;34.00;;;14.80;;
29954;SDS011;68448;51.188;6.868;2024-01-15T01:46:10;48.73;;;18.70;;
29954;SDS011;68448;51.188;6.868;2024-01-15T01:48:38;52.80;;;19.13;;
29954;SDS011;68448;51.188;6.868;2024-01-15T01:51:05;48.63;;;20.23;;
29954;SDS011;68448;51.188;6.868;2024-01-15T01:53:34;43.63;;;18.50;;
29954;SDS011;68448;51.188;6.868;2024-01-15T01:56:02;43.33;;;21.10;;
29954;SDS011;68448;51.188;6.868;2024-01-15T01:58:30;44.93;;;19.73;;
29954;SDS011;68448;51.188;6.868;2024-01-15T02:00:59;46.63;;;18.63;;
29954;SDS011;68448;51.188;6.868;2024-01-15T02:03:26;46.27;;;23.90;;
29954;SDS011;68448;51.188;6.868;2024-01-15T02:05:54;39.33;;;20.07;;
29954;SDS011;68448;51.188;6.868;2024-01-15T02:08:22;41.80;;;17.30;;
29954;SDS011;68448;51.188;6.868;2024-01-15T02:10:49;38.63;;;18.20;;
29954;SDS011;68448;51.188;6.868;2024-01-15T02:13:16;48.13;;;20.47;;
29954;SDS011;68448;51.188;6.868;2024-01-15T02:15:45;40.67;;;19.73;;
29954;SDS011;68448;51.188;6.868;2024-01-15T02:18:12;41.83;;;18.40;;
29954;SDS011;68448;51.188;6.868;2024-01-15T02:20:40;46.07;;;22.50;;
29954;SDS011;68448;51.188;6.868;2024-01-15T02:23:09;37.17;;;15.73;;
29954;SDS011;68448;51.188;6.868;2024-01-15T02:25:37;44.33;;;16.37;;
29954;SDS011;68448;51.188;6.868;2024-01-15T02:28:04;41.40;;;18.20;;
29954;SDS011;68448;51.188;6.868;2024-01-15T02:30:32;37.20;;;16.63;;
29954;SDS011;68448;51.188;6.868;2024-01-15T02:33:01;44.83;;;20.03;;
29954;SDS011;68448;51.188;6.868;2024-01-15T02:35:28;43.67;;;19.90;;
29954;SDS011;68448;51.188;6.868;2024-01-15T02:37:55;38.50;;;17.90;;
29954;SDS011;68448;51.188;6.868;2024-01-15T02:40:24;31.13;;;13.43;;
29954;SDS011;68448;51.188;6.868;2024-01-15T02:42:51;43.47;;;18.00;;
29954;SDS011;68448;51.188;6.868;2024-01-15T02:45:19;43.43;;;18.80;;
29954;SDS011;68448;51.188;6.868;2024-01-15T02:47:46;39.30;;;19.27;;
29954;SDS011;68448;51.188;6.868;2024-01-15T02:50:13;44.63;;;16.17;;
29954;SDS011;68448;51.188;6.868;2024-01-15T02:52:41;41.93;;;19.10;;
29954;SDS011;68448;51.188;6.868;2024-01-15T02:55:08;40.57;;;17.67;;
29954;SDS011;68448;51.188;6.868;2024-01-15T02:57:37;37.67;;;18.70;;
29954;SDS011;68448;51.188;6.868;2024-01-15T03:00:04;37.00;;;16.73;;
29954;SDS011;68448;51.188;6.868;2024-01-15T03:02:32;35.23;;;14.77;;
29954;SDS011;68448;51.188;6.868;2024-01-15T03:04:59;39.60;;;17.00;;
29954;SDS011;68448;51.188;6.868;2024-01-15T03:07:28;37.17;;;17.17;;
29954;SDS011;68448;51.188;6.868;2024-01-15T03:09:55;36.53;;;18.23;;
29954;SDS011;68448;51.188;6.868;2024-01-15T03:12:22;35.90;;;17.30;;
29954;SDS011;68448;51.188;6.868;2024-01-15T03:14:50;36.87;;;14.10;;
29954;SDS011;68448;51.188;6.868;2024-01-15T03:17:18;34.60;;;13.00;;
29954;SDS011;68448;51.188;6.868;2024-01-15T03:19:45;40.43;;;18.37;;
29954;SDS011;68448;51.188;6.868;2024-01-15T03:22:12;32.57;;;17.37;;
29954;SDS011;68448;51.188;6.868;2024-01-15T03:24:40;31.33;;;13.90;;
29954;SDS011;68448;51.188;6.868;2024-01-15T03:27:07;21.90;;;11.90;;
29954;SDS011;68448;51.188;6.868;2024-01-15T03:29:34;33.40;;;13.90;;
29954;SDS011;68448;51.188;6.868;2024-01-15T03:32:03;29.80;;;13.60;;
29954;SDS011;68448;51.188;6.868;2024-01-15T03:34:30;27.70;;;15.57;;
29954;SDS011;68448;51.188;6.868;2024-01-15T03:36:58;27.83;;;13.50;;
29954;SDS011;68448;51.188;6.868;2024-01-15T03:39:25;30.63;;;15.80;;
29954;SDS011;68448;51.188;6.868;2024-01-15T03:41:52;28.67;;;15.20;;
29954;SDS011;68448;51.188;6.868;2024-01-15T03:44:19;22.07;;;12.10;;
29954;SDS011;68448;51.188;6.868;2024-01-15T03:46:46;27.03;;;13.30;;
29954;SDS011;68448;51.188;6.868;2024-01-15T03:49:14;27.80;;;12.30;;
29954;SDS011;68448;51.188;6.868;2024-01-15T03:51:42;30.80;;;14.10;;
29954;SDS011;68448;51.188;6.868;2024-01-15T03:54:09;39.33;;;15.90;;
29954;SDS011;68448;51.188;6.868;2024-01-15T03:56:36;37.80;;;15.93;;
29954;SDS011;68448;51.188;6.868;2024-01-15T03:59:03;33.17;;;13.70;;
29954;SDS011;68448;51.188;6.868;2024-01-15T04:01:30;32.00;;;13.33;;
29954;SDS011;68448;51.188;6.868;2024-01-15T04:03:57;29.23;;;14.57;;
29954;SDS011;68448;51.188;6.868;2024-01-15T04:06:26;26.83;;;13.20;;
29954;SDS011;68448;51.188;6.868;2024-01-15T04:08:53;29.00;;;11.60;;
29954;SDS011;68448;51.188;6.868;2024-01-15T04:11:20;25.97;;;12.50;;
29954;SDS011;68448;51.188;6.868;2024-01-15T04:13:48;34.53;;;15.30;;
29954;SDS011;68448;51.188;6.868;2024-01-15T04:16:15;34.57;;;15.03;;
29954;SDS011;68448;51.188;6.868;2024-01-15T04:18:42;28.27;;;13.17;;
29954;SDS011;68448;51.188;6.868;2024-01-15T04:21:09;34.50;;;13.50;;
29954;SDS011;68448;51.188;6.868;2024-01-15T04:23:38;30.03;;;13.17;;
29954;SDS011;68448;51.188;6.868;2024-01-15T04:26:05;26.90;;;14.27;;
29954;SDS011;68448;51.188;6.868;2024-01-15T04:28:32;27.43;;;12.90;;
29954;SDS011;68448;51.188;6.868;2024-01-15T04:31:00;17.17;;;6.90;;
29954;SDS011;68448;51.188;6.868;2024-01-15T04:33:27;39.93;;;16.00;;
29954;SDS011;68448;51.188;6.868;2024-01-15T04:35:54;18.53;;;9.20;;
29954;SDS011;68448;51.188;6.868;2024-01-15T04:38:21;18.87;;;10.27;;
29954;SDS011;68448;51.188;6.868;2024-01-15T04:40:50;18.33;;;9.07;;
29954;SDS011;68448;51.188;6.868;2024-01-15T04:43:21;24.80;;;10.80;;
29954;SDS011;68448;51.188;6.868;2024-01-15T04:45:48;21.20;;;11.00;;
29954;SDS011;68448;51.188;6.868;2024-01-15T04:48:15;20.53;;;10.97;;
29954;SDS011;68448;51.188;6.868;2024-01-15T04:50:42;18.77;;;7.60;;
29954;SDS011;68448;51.188;6.868;2024-01-15T04:53:09;18.70;;;8.70;;
29954;SDS011;68448;51.188;6.868;2024-01-15T04:55:38;24.43;;;12.40;;
29954;SDS011;68448;51.188;6.868;2024-01-15T04:58:07;22.43;;;8.43;;
29954;SDS011;68448;51.188;6.868;2024-01-15T05:00:34;20.33;;;9.83;;
29954;SDS011;68448;51.188;6.868;2024-01-15T05:03:02;16.93;;;10.87;;
29954;SDS011;68448;51.188;6.868;2024-01-15T05:05:30;25.17;;;12.20;;
29954;SDS011;68448;51.188;6.868;2024-01-15T05:07:57;22.70;;;10.33;;
29954;SDS011;68448;51.188;6.868;2024-01-15T05:10:24;21.20;;;9.97;;
29954;SDS011;68448;51.188;6.868;2024-01-15T05:12:51;19.00;;;9.80;;
29954;SDS011;68448;51.188;6.868;2024-01-15T05:15:20;19.47;;;11.37;;
29954;SDS011;68448;51.188;6.868;2024-01-15T05:17:47;10.23;;;6.50;;
29954;SDS011;68448;51.188;6.868;2024-01-15T05:20:14;25.60;;;11.87;;
29954;SDS011;68448;51.188;6.868;2024-01-15T05:22:42;20.63;;;10.77;;
29954;SDS011;68448;51.188;6.868;2024-01-15T05:25:09;20.10;;;9.47;;
29954;SDS011;68448;51.188;6.868;2024-01-15T05:27:36;20.83;;;9.00;;
29954;SDS011;68448;51.188;6.868;2024-01-15T05:30:03;23.37;;;9.73;;
29954;SDS011;68448;51.188;6.868;2024-01-15T05:32:32;17.60;;;10.87;;
29954;SDS011;68448;51.188;6.868;2024-01-15T05:35:00;23.63;;;9.53;;
29954;SDS011;68448;51.188;6.868;2024-01-15T05:37:27;23.40;;;9.67;;
29954;SDS011;68448;51.188;6.868;2024-01-15T05:39:54;18.93;;;9.60;;
29954;SDS011;68448;51.188;6.868;2024-01-15T05:42:21;20.70;;;11.80;;
29954;SDS011;68448;51.188;6.868;2024-01-15T05:44:49;21.77;;;11.20;;
29954;SDS011;68448;51.188;6.868;2024-01-15T05:47:16;23.90;;;10.87;;
29954;SDS011;68448;51.188;6.868;2024-01-15T05:49:44;23.13;;;10.30;;
29954;SDS011;68448;51.188;6.868;2024-01-15T05:52:11;18.63;;;9.90;;
29954;SDS011;68448;51.188;6.868;2024-01-15T05:54:38;23.33;;;8.80;;
29954;SDS011;68448;51.188;6.868;2024-01-15T05:57:06;18.80;;;8.53;;
29954;SDS011;68448;51.188;6.868;2024-01-15T05:59:33;18.40;;;9.27;;
29954;SDS011;68448;51.188;6.868;2024-01-15T06:02:00;18.60;;;10.30;;
29954;SDS011;68448;51.188;6.868;2024-01-15T06:04:27;23.37;;;9.80;;
29954;SDS011;68448;51.188;6.868;2024-01-15T06:06:56;16.70;;;9.00;;
29954;SDS011;68448;51.188;6.868;2024-01-15T06:09:23;25.83;;;8.43;;
29954;SDS011;68448;51.188;6.868;2024-01-15T06:11:50;20.00;;;9.13;;
29954;SDS011;68448;51.188;6.868;2024-01-15T06:14:17;17.80;;;8.83;;
29954;SDS011;68448;51.188;6.868;2024-01-15T06:16:45;17.20;;;8.50;;
29954;SDS011;68448;51.188;6.868;2024-01-15T06:19:12;16.20;;;8.67;;
29954;SDS011;68448;51.188;6.868;2024-01-15T06:21:39;18.70;;;9.53;;
29954;SDS011;68448;51.188;6.868;2024-01-15T06:24:08;25.63;;;9.33;;
29954;SDS011;68448;51.188;6.868;2024-01-15T06:26:35;21.10;;;8.60;;
29954;SDS011;68448;51.188;6.868;2024-01-15T06:29:02;16.47;;;8.87;;
29954;SDS011;68448;51.188;6.868;2024-01-15T06:31:29;17.60;;;8.77;;
29954;SDS011;68448;51.188;6.868;2024-01-15T06:33:57;14.17;;;7.77;;
29954;SDS011;68448;51.188;6.868;2024-01-15T06:36:24;19.60;;;8.90;;
29954;SDS011;68448;51.188;6.868;2024-01-15T06:38:51;11.03;;;6.47;;
29954;SDS011;68448;51.188;6.868;2024-01-15T06:41:19;13.27;;;7.27;;
29954;SDS011;68448;51.188;6.868;2024-01-15T06:43:47;13.10;;;6.53;;
29954;SDS011;68448;51.188;6.868;2024-01-15T06:46:19;13.63;;;6.20;;
29954;SDS011;68448;51.188;6.868;2024-01-15T06:48:46;18.03;;;7.70;;
29954;SDS011;68448;51.188;6.868;2024-01-15T06:51:13;11.73;;;5.93;;
29954;SDS011;68448;51.188;6.868;2024-01-15T06:53:40;10.57;;;5.93;;
29954;SDS011;68448;51.188;6.868;2024-01-15T06:56:08;8.47;;;5.60;;
29954;SDS011;68448;51.188;6.868;2024-01-15T06:58:36;13.07;;;7.40;;
29954;SDS011;68448;51.188;6.868;2024-01-15T07:01:03;10.90;;;7.30;;
29954;SDS011;68448;51.188;6.868;2024-01-15T07:03:31;17.27;;;8.40;;
29954;SDS011;68448;51.188;6.868;2024-01-15T07:05:58;13.63;;;8.80;;
29954;SDS011;68448;51.188;6.868;2024-01-15T07:08:26;15.00;;;7.13;;
29954;SDS011;68448;51.188;6.868;2024-01-15T07:10:53;13.93;;;8.40;;
29954;SDS011;68448;51.188;6.868;2024-01-15T07:13:20;16.77;;;8.37;;
29954;SDS011;68448;51.188;6.868;2024-01-15T07:15:48;16.57;;;8.50;;
29954;SDS011;68448;51.188;6.868;2024-01-15T07:18:15;17.63;;;9.70;;
29954;SDS011;68448;51.188;6.868;2024-01-15T07:20:43;17.43;;;7.50;;
29954;SDS011;68448;51.188;6.868;2024-01-15T07:23:10;23.67;;;12.90;;
29954;SDS011;68448;51.188;6.868;2024-01-15T07:25:37;16.03;;;8.60;;
29954;SDS011;68448;51.188;6.868;2024-01-15T07:28:05;19.80;;;11.63;;
29954;SDS011;68448;51.188;6.868;2024-01-15T07:30:32;25.87;;;12.20;;
29954;SDS011;68448;51.188;6.868;2024-01-15T07:33:01;21.80;;;11.73;;
29954;SDS011;68448;51.188;6.868;2024-01-15T07:35:28;25.47;;;12.60;;
29954;SDS011;68448;51.188;6.868;2024-01-15T07:37:55;30.67;;;9.87;;
29954;SDS011;68448;51.188;6.868;2024-01-15T07:40:22;29.30;;;14.80;;
29954;SDS011;68448;51.188;6.868;2024-01-15T07:42:49;24.83;;;14.23;;
29954;SDS011;68448;51.188;6.868;2024-01-15T07:45:16;21.23;;;12.33;;
29954;SDS011;68448;51.188;6.868;2024-01-15T07:47:43;28.10;;;12.93;;
29954;SDS011;68448;51.188;6.868;2024-01-15T07:50:12;25.83;;;11.80;;
29954;SDS011;68448;51.188;6.868;2024-01-15T07:52:40;17.90;;;11.40;;
29954;SDS011;68448;51.188;6.868;2024-01-15T07:55:07;22.67;;;10.47;;
29954;SDS011;68448;51.188;6.868;2024-01-15T07:57:34;26.63;;;14.30;;
29954;SDS011;68448;51.188;6.868;2024-01-15T08:00:02;27.87;;;12.37;;
29954;SDS011;68448;51.188;6.868;2024-01-15T08:02:30;15.63;;;9.60;;
29954;SDS011;68448;51.188;6.868;2024-01-15T08:05:02;26.33;;;13.97;;
29954;SDS011;68448;51.188;6.868;2024-01-15T08:07:44;28.30;;;13.20;;
29954;SDS011;68448;51.188;6.868;2024-01-15T08:10:11;28.63;;;13.57;;
29954;SDS011;68448;51.188;6.868;2024-01-15T08:12:39;17.43;;;9.70;;
29954;SDS011;68448;51.188;6.868;2024-01-15T08:15:06;26.97;;;12.93;;
29954;SDS011;68448;51.188;6.868;2024-01-15T08:17:33;25.40;;;13.57;;
29954;SDS011;68448;51.188;6.868;2024-01-15T08:20:01;29.00;;;14.50;;
29954;SDS011;68448;51.188;6.868;2024-01-15T08:22:28;28.87;;;14.87;;
29954;SDS011;68448;51.188;6.868;2024-01-15T08:24:59;35.43;;;17.73;;
29954;SDS011;68448;51.188;6.868;2024-01-15T08:27:26;30.60;;;14.97;;
29954;SDS011;68448;51.188;6.868;2024-01-15T08:29:53;28.37;;;14.77;;
29954;SDS011;68448;51.188;6.868;2024-01-15T08:32:20;46.87;;;17.50;;
29954;SDS011;68448;51.188;6.868;2024-01-15T08:34:47;34.60;;;17.30;;
29954;SDS011;68448;51.188;6.868;2024-01-15T08:37:15;23.97;;;9.30;;
29954;SDS011;68448;51.188;6.868;2024-01-15T08:39:42;34.53;;;15.33;;
29954;SDS011;68448;51.188;6.868;2024-01-15T08:42:10;34.07;;;15.97;;
29954;SDS011;68448;51.188;6.868;2024-01-15T08:44:37;27.70;;;15.70;;
29954;SDS011;68448;51.188;6.868;2024-01-15T08:47:05;27.80;;;14.90;;
29954;SDS011;68448;51.188;6.868;2024-01-15T08:49:32;29.67;;;14.77;;
29954;SDS011;68448;51.188;6.868;2024-01-15T08:51:59;30.07;;;15.30;;
29954;SDS011;68448;51.188;6.868;2024-01-15T08:54:27;27.93;;;12.57;;
29954;SDS011;68448;51.188;6.868;2024-01-15T08:56:54;31.97;;;15.07;;
29954;SDS011;68448;51.188;6.868;2024-01-15T08:59:22;29.00;;;14.37;;
29954;SDS011;68448;51.188;6.868;2024-01-15T09:01:49;25.80;;;13.40;;
29954;SDS011;68448;51.188;6.868;2024-01-15T09:04:17;20.73;;;11.20;;
29954;SDS011;68448;51.188;6.868;2024-01-15T09:06:44;25.77;;;12.53;;
29954;SDS011;68448;51.188;6.868;2024-01-15T09:09:12;31.83;;;15.10;;
29954;SDS011;68448;51.188;6.868;2024-01-15T09:11:40;22.90;;;12.17;;
29954;SDS011;68448;51.188;6.868;2024-01-15T09:14:07;28.73;;;14.80;;
29954;SDS011;68448;51.188;6.868;2024-01-15T09:16:36;37.00;;;18.13;;
29954;SDS011;68448;51.188;6.868;2024-01-15T09:19:03;28.00;;;14.37;;
29954;SDS011;68448;51.188;6.868;2024-01-15T09:21:30;33.77;;;14.67;;
29954;SDS011;68448;51.188;6.868;2024-01-15T09:23:58;27.17;;;14.87;;
29954;SDS011;68448;51.188;6.868;2024-01-15T09:26:25;33.70;;;15.30;;
29954;SDS011;68448;51.188;6.868;2024-01-15T09:28:52;20.03;;;10.40;;
29954;SDS011;68448;51.188;6.868;2024-01-15T09:31:19;18.93;;;7.37;;
29954;SDS011;68448;51.188;6.868;2024-01-15T09:33:49;37.87;;;18.07;;
29954;SDS011;68448;51.188;6.868;2024-01-15T09:36:16;31.97;;;14.20;;
29954;SDS011;68448;51.188;6.868;2024-01-15T09:38:43;26.83;;;15.33;;
29954;SDS011;68448;51.188;6.868;2024-01-15T09:41:10;28.60;;;12.13;;
29954;SDS011;68448;51.188;6.868;2024-01-15T09:43:37;28.37;;;14.80;;
29954;SDS011;68448;51.188;6.868;2024-01-15T09:46:05;26.07;;;13.57;;
29954;SDS011;68448;51.188;6.868;2024-01-15T09:48:32;21.87;;;12.60;;
29954;SDS011;68448;51.188;6.868;2024-01-15T09:51:02;23.10;;;12.57;;
29954;SDS011;68448;51.188;6.868;2024-01-15T09:53:29;27.83;;;14.63;;
29954;SDS011;68448;51.188;6.868;2024-01-15T09:55:57;27.23;;;13.50;;
29954;SDS011;68448;51.188;6.868;2024-01-15T09:58:25;18.80;;;10.00;;
29954;SDS011;68448;51.188;6.868;2024-01-15T10:00:52;24.17;;;11.83;;
29954;SDS011;68448;51.188;6.868;2024-01-15T10:03:20;25.80;;;12.87;;
29954;SDS011;68448;51.188;6.868;2024-01-15T10:05:48;23.60;;;10.17;;
29954;SDS011;68448;51.188;6.868;2024-01-15T10:08:17;26.13;;;13.57;;
29954;SDS011;68448;51.188;6.868;2024-01-15T10:10:47;27.77;;;13.67;;
29954;SDS011;68448;51.188;6.868;2024-01-15T10:13:14;22.50;;;11.90;;
29954;SDS011;68448;51.188;6.868;2024-01-15T10:15:44;18.07;;;11.57;;
29954;SDS011;68448;51.188;6.868;2024-01-15T10:18:12;24.10;;;10.73;;
29954;SDS011;68448;51.188;6.868;2024-01-15T10:20:39;19.93;;;9.63;;
29954;SDS011;68448;51.188;6.868;2024-01-15T10:23:07;17.57;;;9.93;;
29954;SDS011;68448;51.188;6.868;2024-01-15T10:25:36;14.30;;;8.53;;
29954;SDS011;68448;51.188;6.868;2024-01-15T10:28:04;17.50;;;9.50;;
29954;SDS011;68448;51.188;6.868;2024-01-15T10:30:31;11.83;;;7.17;;
29954;SDS011;68448;51.188;6.868;2024-01-15T10:32:59;22.50;;;8.60;;
29954;SDS011;68448;51.188;6.868;2024-01-15T10:35:27;8.37;;;6.40;;
29954;SDS011;68448;51.188;6.868;2024-01-15T10:37:55;12.20;;;7.40;;
29954;SDS011;68448;51.188;6.868;2024-01-15T10:40:22;14.17;;;7.83;;
29954;SDS011;68448;51.188;6.868;2024-01-15T10:42:50;14.40;;;7.30;;
29954;SDS011;68448;51.188;6.868;2024-01-15T10:45:18;10.20;;;6.30;;
29954;SDS011;68448;51.188;6.868;2024-01-15T10:47:45;8.63;;;5.20;;
29954;SDS011;68448;51.188;6.868;2024-01-15T10:50:13;9.87;;;5.27;;
29954;SDS011;68448;51.188;6.868;2024-01-15T10:52:40;7.20;;;4.93;;
29954;SDS011;68448;51.188;6.868;2024-01-15T10:55:08;8.87;;;5.50;;
29954;SDS011;68448;51.188;6.868;2024-01-15T10:57:43;10.10;;;5.70;;
29954;SDS011;68448;51.188;6.868;2024-01-15T11:00:13;8.57;;;3.70;;
29954;SDS011;68448;51.188;6.868;2024-01-15T11:02:40;8.00;;;4.40;;
29954;SDS011;68448;51.188;6.868;2024-01-15T11:05:08;10.17;;;5.83;;
29954;SDS011;68448;51.188;6.868;2024-01-15T11:07:35;8.77;;;3.77;;
29954;SDS011;68448;51.188;6.868;2024-01-15T11:10:03;7.10;;;4.43;;
29954;SDS011;68448;51.188;6.868;2024-01-15T11:12:30;5.20;;;2.93;;
29954;SDS011;68448;51.188;6.868;2024-01-15T11:15:01;8.33;;;5.60;;
29954;SDS011;68448;51.188;6.868;2024-01-15T11:17:31;7.30;;;4.27;;
29954;SDS011;68448;51.188;6.868;2024-01-15T11:20:17;5.53;;;2.90;;
29954;SDS011;68448;51.188;6.868;2024-01-15T11:22:48;10.40;;;3.53;;
29954;SDS011;68448;51.188;6.868;2024-01-15T11:25:17;9.33;;;4.37;;
29954;SDS011;68448;51.188;6.868;2024-01-15T11:27:45;6.93;;;2.93;;
29954;SDS011;68448;51.188;6.868;2024-01-15T11:30:13;3.07;;;2.30;;
29954;SDS011;68448;51.188;6.868;2024-01-15T11:32:42;4.40;;;2.30;;
29954;SDS011;68448;51.188;6.868;2024-01-15T11:35:10;6.20;;;2.23;;
29954;SDS011;68448;51.188;6.868;2024-01-15T11:37:56;5.17;;;2.60;;
29954;SDS011;68448;51.188;6.868;2024-01-15T11:40:36;2.63;;;2.27;;
29954;SDS011;68448;51.188;6.868;2024-01-15T11:43:04;5.07;;;2.60;;
29954;SDS011;68448;51.188;6.868;2024-01-15T11:45:31;2.73;;;2.40;;
29954;SDS011;68448;51.188;6.868;2024-01-15T11:48:09;4.20;;;3.30;;
29954;SDS011;68448;51.188;6.868;2024-01-15T11:50:36;5.07;;;3.60;;
29954;SDS011;68448;51.188;6.868;2024-01-15T11:53:16;8.00;;;3.67;;
29954;SDS011;68448;51.188;6.868;2024-01-15T11:55:44;7.67;;;3.63;;
29954;SDS011;68448;51.188;6.868;2024-01-15T11:58:12;4.93;;;3.20;;
29954;SDS011;68448;51.188;6.868;2024-01-15T12:00:39;4.00;;;2.83;;
29954;SDS011;68448;51.188;6.868;2024-01-15T12:03:08;5.23;;;3.90;;
29954;SDS011;68448;51.188;6.868;2024-01-15T12:05:36;5.93;;;3.73;;
29954;SDS011;68448;51.188;6.868;2024-01-15T12:08:04;6.17;;;4.20;;
29954;SDS011;68448;51.188;6.868;2024-01-15T12:10:31;6.70;;;3.83;;
29954;SDS011;68448;51.188;6.868;2024-01-15T12:12:59;8.90;;;4.53;;
29954;SDS011;68448;51.188;6.868;2024-01-15T12:15:27;9.97;;;4.53;;
29954;SDS011;68448;51.188;6.868;2024-01-15T12:17:55;6.20;;;4.50;;
29954;SDS011;68448;51.188;6.868;2024-01-15T12:20:24;7.67;;;4.83;;
29954;SDS011;68448;51.188;6.868;2024-01-15T12:22:51;6.87;;;4.20;;
29954;SDS011;68448;51.188;6.868;2024-01-15T12:25:27;5.20;;;4.33;;
29954;SDS011;68448;51.188;6.868;2024-01-15T12:27:56;5.20;;;4.10;;
29954;SDS011;68448;51.188;6.868;2024-01-15T12:30:23;5.87;;;4.27;;
29954;SDS011;68448;51.188;6.868;2024-01-15T12:32:52;8.70;;;5.20;;
29954;SDS011;68448;51.188;6.868;2024-01-15T12:35:20;6.30;;;4.80;;
29954;SDS011;68448;51.188;6.868;2024-01-15T12:37:48;8.00;;;5.00;;
29954;SDS011;68448;51.188;6.868;2024-01-15T12:40:18;12.17;;;5.90;;
29954;SDS011;68448;51.188;6.868;2024-01-15T12:42:46;9.20;;;5.90;;
29954;SDS011;68448;51.188;6.868;2024-01-15T12:45:13;12.57;;;6.13;;
29954;SDS011;68448;51.188;6.868;2024-01-15T12:47:41;8.70;;;5.63;;
29954;SDS011;68448;51.188;6.868;2024-01-15T12:50:09;10.70;;;6.13;;
29954;SDS011;68448;51.188;6.868;2024-01-15T12:52:45;8.67;;;5.50;;
29954;SDS011;68448;51.188;6.868;2024-01-15T12:55:13;12.57;;;7.13;;
29954;SDS011;68448;51.188;6.868;2024-01-15T12:57:42;12.20;;;6.67;;
29954;SDS011;68448;51.188;6.868;2024-01-15T13:00:09;10.93;;;6.83;;
29954;SDS011;68448;51.188;6.868;2024-01-15T13:02:37;12.90;;;6.33;;
29954;SDS011;68448;51.188;6.868;2024-01-15T13:05:04;18.93;;;5.33;;
29954;SDS011;68448;51.188;6.868;2024-01-15T13:07:32;9.30;;;6.27;;
29954;SDS011;68448;51.188;6.868;2024-01-15T13:09:59;11.93;;;5.57;;
29954;SDS011;68448;51.188;6.868;2024-01-15T13:12:28;8.90;;;5.60;;
29954;SDS011;68448;51.188;6.868;2024-01-15T13:14:55;10.10;;;5.27;;
29954;SDS011;68448;51.188;6.868;2024-01-15T13:17:23;8.33;;;4.80;;
29954;SDS011;68448;51.188;6.868;2024-01-15T13:19:50;10.63;;;5.10;;
29954;SDS011;68448;51.188;6.868;2024-01-15T13:22:17;6.27;;;3.90;;
29954;SDS011;68448;51.188;6.868;2024-01-15T13:24:44;8.73;;;5.20;;
29954;SDS011;68448;51.188;6.868;2024-01-15T13:27:12;9.17;;;5.40;;
29954;SDS011;68448;51.188;6.868;2024-01-15T13:29:40;9.60;;;5.93;;
29954;SDS011;68448;51.188;6.868;2024-01-15T13:32:07;9.07;;;4.80;;
29954;SDS011;68448;51.188;6.868;2024-01-15T13:34:35;5.33;;;4.07;;
29954;SDS011;68448;51.188;6.868;2024-01-15T13:37:03;6.97;;;4.10;;
29954;SDS011;68448;51.188;6.868;2024-01-15T13:39:30;5.23;;;3.80;;
29954;SDS011;68448;51.188;6.868;2024-01-15T13:41:57;10.20;;;3.50;;
29954;SDS011;68448;51.188;6.868;2024-01-15T13:44:24;9.50;;;3.10;;
29954;SDS011;68448;51.188;6.868;2024-01-15T13:46:53;4.50;;;3.00;;
29954;SDS011;68448;51.188;6.868;2024-01-15T13:49:20;4.83;;;3.10;;
29954;SDS011;68448;51.188;6.868;2024-01-15T13:51:48;4.40;;;3.00;;
29954;SDS011;68448;51.188;6.868;2024-01-15T13:54:15;5.23;;;2.60;;
29954;SDS011;68448;51.188;6.868;2024-01-15T13:56:42;4.83;;;3.30;;
29954;SDS011;68448;51.188;6.868;2024-01-15T13:59:10;6.50;;;3.17;;
29954;SDS011;68448;51.188;6.868;2024-01-15T14:01:37;2.63;;;2.40;;
29954;SDS011;68448;51.188;6.868;2024-01-15T14:04:05;3.70;;;2.70;;
29954;SDS011;68448;51.188;6.868;2024-01-15T14:06:32;2.07;;;1.97;;
29954;SDS011;68448;51.188;6.868;2024-01-15T14:09:00;2.10;;;1.90;;
29954;SDS011;68448;51.188;6.868;2024-01-15T14:11:27;2.40;;;2.20;;
29954;SDS011;68448;51.188;6.868;2024-01-15T14:13:54;2.37;;;1.83;;
29954;SDS011;68448;51.188;6.868;2024-01-15T14:16:21;2.27;;;1.37;;
29954;SDS011;68448;51.188;6.868;2024-01-15T14:18:51;4.63;;;2.13;;
29954;SDS011;68448;51.188;6.868;2024-01-15T14:21:20;4.00;;;1.83;;
29954;SDS011;68448;51.188;6.868;2024-01-15T14:23:47;3.97;;;1.77;;
29954;SDS011;68448;51.188;6.868;2024-01-15T14:26:14;5.63;;;2.10;;
29954;SDS011;68448;51.188;6.868;2024-01-15T14:28:43;2.77;;;2.00;;
29954;SDS011;68448;51.188;6.868;2024-01-15T14:31:10;1.70;;;1.60;;
29954;SDS011;68448;51.188;6.868;2024-01-15T14:33:37;4.10;;;2.17;;